sensor_id;sensor_type;location;lat;lon;timestamp;temperature;humidity
66013;DHT22;52783;50.502;8.190;2023-05-02T00:00:52;10.30;99.90
66013;DHT22;52783;50.502;8.190;2023-05-02T00:03:18;10.40;99.90
66013;DHT22;52783;50.502;8.190;2023-05-02T00:05:44;10.30;99.90
66013;DHT22;52783;50.502;8.190;2023-05-02T00:08:10;10.30;99.90
66013;DHT22;52783;50.502;8.190;2023-05-02T00:10:36;10.30;99.90
66013;DHT22;52783;50.502;8.190;2023-05-02T00:13:02;10.30;99.90
66013;DHT22;52783;50.502;8.190;2023-05-02T00:15:27;10.30;99.90
66013;DHT22;52783;50.502;8.190;2023-05-02T00:17:53;10.30;99.90
66013;DHT22;52783;50.502;8.190;2023-05-02T00:20:18;10.30;99.90
66013;DHT22;52783;50.502;8.190;2023-05-02T00:22:44;10.30;99.90
66013;DHT22;52783;50.502;8.190;2023-05-02T00:25:09;10.30;99.90
66013;DHT22;52783;50.502;8.190;2023-05-02T00:27:40;10.20;99.90
66013;DHT22;52783;50.502;8.190;2023-05-02T00:30:07;10.20;99.90
66013;DHT22;52783;50.502;8.190;2023-05-02T00:32:32;10.20;99.90
66013;DHT22;52783;50.502;8.190;2023-05-02T00:34:58;10.10;99.90
66013;DHT22;52783;50.502;8.190;2023-05-02T00:37:25;10.10;99.90
66013;DHT22;52783;50.502;8.190;2023-05-02T00:39:52;10.10;99.90
66013;DHT22;52783;50.502;8.190;2023-05-02T00:42:17;10.10;99.90
66013;DHT22;52783;50.502;8.190;2023-05-02T00:44:43;10.10;99.90
66013;DHT22;52783;50.502;8.190;2023-05-02T00:47:08;10.00;99.90
66013;DHT22;52783;50.502;8.190;2023-05-02T00:49:34;10.10;99.90
66013;DHT22;52783;50.502;8.190;2023-05-02T00:52:00;10.00;99.90
66013;DHT22;52783;50.502;8.190;2023-05-02T00:54:26;9.90;99.90
66013;DHT22;52783;50.502;8.190;2023-05-02T00:56:52;9.90;99.90
66013;DHT22;52783;50.502;8.190;2023-05-02T00:59:17;9.90;99.90
66013;DHT22;52783;50.502;8.190;2023-05-02T01:06:58;9.80;99.90
66013;DHT22;52783;50.502;8.190;2023-05-02T01:12:35;9.70;99.90
66013;DHT22;52783;50.502;8.190;2023-05-02T01:15:06;9.70;99.90
66013;DHT22;52783;50.502;8.190;2023-05-02T01:17:33;9.60;99.90
66013;DHT22;52783;50.502;8.190;2023-05-02T01:20:06;9.60;99.90
66013;DHT22;52783;50.502;8.190;2023-05-02T01:22:34;9.50;99.90
66013;DHT22;52783;50.502;8.190;2023-05-02T01:25:13;9.40;99.90
66013;DHT22;52783;50.502;8.190;2023-05-02T01:30:20;9.30;99.90
66013;DHT22;52783;50.502;8.190;2023-05-02T01:32:48;9.30;99.90
66013;DHT22;52783;50.502;8.190;2023-05-02T01:35:16;9.30;99.90
66013;DHT22;52783;50.502;8.190;2023-05-02T01:37:44;9.30;99.90
66013;DHT22;52783;50.502;8.190;2023-05-02T01:40:10;9.30;99.90
66013;DHT22;52783;50.502;8.190;2023-05-02T01:42:37;9.40;99.90
66013;DHT22;52783;50.502;8.190;2023-05-02T01:45:05;9.30;99.90
66013;DHT22;52783;50.502;8.190;2023-05-02T01:47:32;9.40;99.90
66013;DHT22;52783;50.502;8.190;2023-05-02T01:50:07;9.50;99.90
66013;DHT22;52783;50.502;8.190;2023-05-02T01:52:35;9.50;99.90
66013;DHT22;52783;50.502;8.190;2023-05-02T01:55:03;9.50;99.90
66013;DHT22;52783;50.502;8.190;2023-05-02T01:57:31;9.50;99.90
66013;DHT22;52783;50.502;8.190;2023-05-02T01:59:57;9.50;99.90
66013;DHT22;52783;50.502;8.190;2023-05-02T02:02:24;9.50;99.90
66013;DHT22;52783;50.502;8.190;2023-05-02T02:04:55;9.50;99.90
66013;DHT22;52783;50.502;8.190;2023-05-02T02:07:21;9.50;99.90
66013;DHT22;52783;50.502;8.190;2023-05-02T02:09:48;9.50;99.90
66013;DHT22;52783;50.502;8.190;2023-05-02T02:12:25;9.40;99.90
66013;DHT22;52783;50.502;8.190;2023-05-02T02:15:20;9.40;99.90
66013;DHT22;52783;50.502;8.190;2023-05-02T02:17:59;9.30;99.90
66013;DHT22;52783;50.502;8.190;2023-05-02T02:20:29;9.40;99.90
66013;DHT22;52783;50.502;8.190;2023-05-02T02:22:57;9.40;99.90
66013;DHT22;52783;50.502;8.190;2023-05-02T02:25:25;9.40;99.90
66013;DHT22;52783;50.502;8.190;2023-05-02T02:27:52;9.40;99.90
66013;DHT22;52783;50.502;8.190;2023-05-02T02:30:18;9.50;99.90
66013;DHT22;52783;50.502;8.190;2023-05-02T02:32:43;9.50;99.90
66013;DHT22;52783;50.502;8.190;2023-05-02T02:35:09;9.50;99.90
66013;DHT22;52783;50.502;8.190;2023-05-02T02:37:43;9.50;99.90
66013;DHT22;52783;50.502;8.190;2023-05-02T02:42:54;9.50;99.90
66013;DHT22;52783;50.502;8.190;2023-05-02T02:45:35;9.60;99.90
66013;DHT22;52783;50.502;8.190;2023-05-02T02:48:29;9.60;99.90
66013;DHT22;52783;50.502;8.190;2023-05-02T02:51:12;9.50;99.90
66013;DHT22;52783;50.502;8.190;2023-05-02T02:56:15;9.30;99.90
66013;DHT22;52783;50.502;8.190;2023-05-02T02:59:02;9.30;99.90
66013;DHT22;52783;50.502;8.190;2023-05-02T03:01:31;9.30;99.90
66013;DHT22;52783;50.502;8.190;2023-05-02T03:03:57;9.30;99.90
66013;DHT22;52783;50.502;8.190;2023-05-02T03:06:24;9.20;99.90
66013;DHT22;52783;50.502;8.190;2023-05-02T03:08:49;9.20;99.90
66013;DHT22;52783;50.502;8.190;2023-05-02T03:11:15;9.10;99.90
66013;DHT22;52783;50.502;8.190;2023-05-02T03:13:41;9.10;99.90
66013;DHT22;52783;50.502;8.190;2023-05-02T03:18:42;9.10;99.90
66013;DHT22;52783;50.502;8.190;2023-05-02T03:21:08;9.00;99.90
66013;DHT22;52783;50.502;8.190;2023-05-02T03:23:34;9.00;99.90
66013;DHT22;52783;50.502;8.190;2023-05-02T03:26:00;9.10;99.90
66013;DHT22;52783;50.502;8.190;2023-05-02T03:28:27;9.10;99.90
66013;DHT22;52783;50.502;8.190;2023-05-02T03:30:52;9.00;99.90
66013;DHT22;52783;50.502;8.190;2023-05-02T03:33:18;9.00;99.90
66013;DHT22;52783;50.502;8.190;2023-05-02T03:35:44;8.90;99.90
66013;DHT22;52783;50.502;8.190;2023-05-02T03:38:10;8.90;99.90
66013;DHT22;52783;50.502;8.190;2023-05-02T03:40:36;8.80;99.90
66013;DHT22;52783;50.502;8.190;2023-05-02T03:43:01;8.90;99.90
66013;DHT22;52783;50.502;8.190;2023-05-02T03:45:27;8.90;99.90
66013;DHT22;52783;50.502;8.190;2023-05-02T03:47:52;8.90;99.90
66013;DHT22;52783;50.502;8.190;2023-05-02T03:50:18;8.90;99.90
66013;DHT22;52783;50.502;8.190;2023-05-02T03:52:43;9.00;99.90
66013;DHT22;52783;50.502;8.190;2023-05-02T03:55:09;9.00;99.90
66013;DHT22;52783;50.502;8.190;2023-05-02T03:57:35;9.10;99.90
66013;DHT22;52783;50.502;8.190;2023-05-02T04:00:01;9.20;99.90
66013;DHT22;52783;50.502;8.190;2023-05-02T04:02:26;9.30;99.90
66013;DHT22;52783;50.502;8.190;2023-05-02T04:04:52;9.30;99.90
66013;DHT22;52783;50.502;8.190;2023-05-02T04:07:18;9.40;99.90
66013;DHT22;52783;50.502;8.190;2023-05-02T04:09:44;9.40;99.90
66013;DHT22;52783;50.502;8.190;2023-05-02T04:12:10;9.50;99.90
66013;DHT22;52783;50.502;8.190;2023-05-02T04:14:35;9.60;99.90
66013;DHT22;52783;50.502;8.190;2023-05-02T04:17:01;9.70;99.90
66013;DHT22;52783;50.502;8.190;2023-05-02T04:19:27;9.80;99.90
66013;DHT22;52783;50.502;8.190;2023-05-02T04:21:52;9.80;99.90
66013;DHT22;52783;50.502;8.190;2023-05-02T04:24:18;9.90;99.90
66013;DHT22;52783;50.502;8.190;2023-05-02T04:26:43;9.90;99.90
66013;DHT22;52783;50.502;8.190;2023-05-02T04:29:10;10.00;99.90
66013;DHT22;52783;50.502;8.190;2023-05-02T04:31:38;10.10;99.90
66013;DHT22;52783;50.502;8.190;2023-05-02T04:34:04;10.20;99.90
66013;DHT22;52783;50.502;8.190;2023-05-02T04:36:30;10.30;99.90
66013;DHT22;52783;50.502;8.190;2023-05-02T04:38:55;10.40;99.90
66013;DHT22;52783;50.502;8.190;2023-05-02T04:41:21;10.40;99.90
66013;DHT22;52783;50.502;8.190;2023-05-02T04:43:47;10.50;99.90
66013;DHT22;52783;50.502;8.190;2023-05-02T04:46:13;10.60;99.90
66013;DHT22;52783;50.502;8.190;2023-05-02T04:48:38;10.60;99.90
66013;DHT22;52783;50.502;8.190;2023-05-02T04:51:07;10.60;99.90
66013;DHT22;52783;50.502;8.190;2023-05-02T04:53:34;10.50;99.90
66013;DHT22;52783;50.502;8.190;2023-05-02T04:55:59;10.50;99.90
66013;DHT22;52783;50.502;8.190;2023-05-02T04:58:25;10.50;99.90
66013;DHT22;52783;50.502;8.190;2023-05-02T05:00:51;10.50;99.90
66013;DHT22;52783;50.502;8.190;2023-05-02T05:03:16;10.50;99.90
66013;DHT22;52783;50.502;8.190;2023-05-02T05:05:42;10.50;99.90
66013;DHT22;52783;50.502;8.190;2023-05-02T05:08:07;10.50;99.90
66013;DHT22;52783;50.502;8.190;2023-05-02T05:10:33;10.50;99.90
66013;DHT22;52783;50.502;8.190;2023-05-02T05:12:59;10.40;99.90
66013;DHT22;52783;50.502;8.190;2023-05-02T05:15:25;10.40;99.90
66013;DHT22;52783;50.502;8.190;2023-05-02T05:17:51;10.50;99.90
66013;DHT22;52783;50.502;8.190;2023-05-02T05:20:17;10.50;99.90
66013;DHT22;52783;50.502;8.190;2023-05-02T05:22:43;10.50;99.90
66013;DHT22;52783;50.502;8.190;2023-05-02T05:25:09;10.60;99.90
66013;DHT22;52783;50.502;8.190;2023-05-02T05:27:35;10.60;99.90
66013;DHT22;52783;50.502;8.190;2023-05-02T05:30:00;10.70;99.90
66013;DHT22;52783;50.502;8.190;2023-05-02T05:32:26;10.70;99.90
66013;DHT22;52783;50.502;8.190;2023-05-02T05:34:53;10.70;99.90
66013;DHT22;52783;50.502;8.190;2023-05-02T05:37:19;10.80;99.90
66013;DHT22;52783;50.502;8.190;2023-05-02T05:39:46;10.90;99.90
66013;DHT22;52783;50.502;8.190;2023-05-02T05:42:11;10.90;99.90
66013;DHT22;52783;50.502;8.190;2023-05-02T05:44:37;11.00;99.90
66013;DHT22;52783;50.502;8.190;2023-05-02T05:47:03;11.10;99.90
66013;DHT22;52783;50.502;8.190;2023-05-02T05:49:29;11.20;99.90
66013;DHT22;52783;50.502;8.190;2023-05-02T05:51:55;11.20;99.90
66013;DHT22;52783;50.502;8.190;2023-05-02T05:54:21;11.40;99.90
66013;DHT22;52783;50.502;8.190;2023-05-02T05:56:46;11.40;99.90
66013;DHT22;52783;50.502;8.190;2023-05-02T05:59:12;11.30;99.90
66013;DHT22;52783;50.502;8.190;2023-05-02T06:01:38;11.40;99.90
66013;DHT22;52783;50.502;8.190;2023-05-02T06:04:04;11.40;99.90
66013;DHT22;52783;50.502;8.190;2023-05-02T06:06:30;11.50;99.90
66013;DHT22;52783;50.502;8.190;2023-05-02T06:08:57;11.50;99.90
66013;DHT22;52783;50.502;8.190;2023-05-02T06:11:22;11.60;99.90
66013;DHT22;52783;50.502;8.190;2023-05-02T06:13:52;11.60;99.90
66013;DHT22;52783;50.502;8.190;2023-05-02T06:16:21;11.70;99.90
66013;DHT22;52783;50.502;8.190;2023-05-02T06:18:46;11.80;99.90
66013;DHT22;52783;50.502;8.190;2023-05-02T06:21:14;11.60;99.90
66013;DHT22;52783;50.502;8.190;2023-05-02T06:23:40;11.80;99.90
66013;DHT22;52783;50.502;8.190;2023-05-02T06:26:05;11.70;99.90
66013;DHT22;52783;50.502;8.190;2023-05-02T06:28:31;11.80;99.90
66013;DHT22;52783;50.502;8.190;2023-05-02T06:31:01;11.60;99.90
66013;DHT22;52783;50.502;8.190;2023-05-02T06:33:32;11.70;99.90
66013;DHT22;52783;50.502;8.190;2023-05-02T06:35:58;11.80;99.90
66013;DHT22;52783;50.502;8.190;2023-05-02T06:38:24;11.60;99.90
66013;DHT22;52783;50.502;8.190;2023-05-02T06:40:50;11.70;99.90
66013;DHT22;52783;50.502;8.190;2023-05-02T06:43:16;11.80;99.90
66013;DHT22;52783;50.502;8.190;2023-05-02T06:45:42;11.80;99.90
66013;DHT22;52783;50.502;8.190;2023-05-02T06:48:08;11.80;99.90
66013;DHT22;52783;50.502;8.190;2023-05-02T06:50:34;12.00;99.90
66013;DHT22;52783;50.502;8.190;2023-05-02T06:53:00;12.00;99.90
66013;DHT22;52783;50.502;8.190;2023-05-02T06:55:26;11.80;99.90
66013;DHT22;52783;50.502;8.190;2023-05-02T06:57:54;11.70;99.90
66013;DHT22;52783;50.502;8.190;2023-05-02T07:00:20;11.50;99.90
66013;DHT22;52783;50.502;8.190;2023-05-02T07:02:47;11.60;99.90
66013;DHT22;52783;50.502;8.190;2023-05-02T07:05:13;11.50;99.90
66013;DHT22;52783;50.502;8.190;2023-05-02T07:07:42;11.50;99.90
66013;DHT22;52783;50.502;8.190;2023-05-02T07:10:09;11.40;99.90
66013;DHT22;52783;50.502;8.190;2023-05-02T07:12:35;11.50;99.90
66013;DHT22;52783;50.502;8.190;2023-05-02T07:15:01;11.40;99.90
66013;DHT22;52783;50.502;8.190;2023-05-02T07:17:27;11.30;99.90
66013;DHT22;52783;50.502;8.190;2023-05-02T07:19:53;11.30;99.90
66013;DHT22;52783;50.502;8.190;2023-05-02T07:22:19;11.30;99.90
66013;DHT22;52783;50.502;8.190;2023-05-02T07:24:45;11.50;99.90
66013;DHT22;52783;50.502;8.190;2023-05-02T07:27:11;11.40;99.90
66013;DHT22;52783;50.502;8.190;2023-05-02T07:29:37;11.60;99.90
66013;DHT22;52783;50.502;8.190;2023-05-02T07:32:02;11.80;99.90
66013;DHT22;52783;50.502;8.190;2023-05-02T07:34:28;12.00;99.90
66013;DHT22;52783;50.502;8.190;2023-05-02T07:36:54;12.30;99.90
66013;DHT22;52783;50.502;8.190;2023-05-02T07:39:20;12.40;99.90
66013;DHT22;52783;50.502;8.190;2023-05-02T07:41:46;12.40;99.90
66013;DHT22;52783;50.502;8.190;2023-05-02T07:44:11;12.60;99.90
66013;DHT22;52783;50.502;8.190;2023-05-02T07:46:37;12.80;99.90
66013;DHT22;52783;50.502;8.190;2023-05-02T07:49:03;13.10;99.90
66013;DHT22;52783;50.502;8.190;2023-05-02T07:51:28;12.90;99.90
66013;DHT22;52783;50.502;8.190;2023-05-02T07:53:54;12.90;99.90
66013;DHT22;52783;50.502;8.190;2023-05-02T07:56:23;13.00;99.90
66013;DHT22;52783;50.502;8.190;2023-05-02T07:58:49;13.10;99.90
66013;DHT22;52783;50.502;8.190;2023-05-02T08:01:16;13.00;99.90
66013;DHT22;52783;50.502;8.190;2023-05-02T08:03:42;13.00;99.90
66013;DHT22;52783;50.502;8.190;2023-05-02T08:06:08;13.00;99.90
66013;DHT22;52783;50.502;8.190;2023-05-02T08:08:34;12.50;99.90
66013;DHT22;52783;50.502;8.190;2023-05-02T08:11:00;12.40;99.90
66013;DHT22;52783;50.502;8.190;2023-05-02T08:13:26;12.30;99.90
66013;DHT22;52783;50.502;8.190;2023-05-02T08:15:51;12.30;99.90
66013;DHT22;52783;50.502;8.190;2023-05-02T08:18:25;12.40;99.90
66013;DHT22;52783;50.502;8.190;2023-05-02T08:20:52;12.60;99.90
66013;DHT22;52783;50.502;8.190;2023-05-02T08:23:17;13.10;99.90
66013;DHT22;52783;50.502;8.190;2023-05-02T08:25:43;13.30;99.90
66013;DHT22;52783;50.502;8.190;2023-05-02T08:28:08;13.30;99.90
66013;DHT22;52783;50.502;8.190;2023-05-02T08:30:34;13.50;99.90
66013;DHT22;52783;50.502;8.190;2023-05-02T08:33:00;13.50;99.90
66013;DHT22;52783;50.502;8.190;2023-05-02T08:35:28;13.30;99.90
66013;DHT22;52783;50.502;8.190;2023-05-02T08:37:53;13.30;99.90
66013;DHT22;52783;50.502;8.190;2023-05-02T08:40:19;13.70;99.90
66013;DHT22;52783;50.502;8.190;2023-05-02T08:42:46;13.80;99.90
66013;DHT22;52783;50.502;8.190;2023-05-02T08:45:13;14.10;99.90
66013;DHT22;52783;50.502;8.190;2023-05-02T08:47:40;14.70;99.90
66013;DHT22;52783;50.502;8.190;2023-05-02T08:50:07;15.00;99.90
66013;DHT22;52783;50.502;8.190;2023-05-02T08:52:35;16.00;99.90
66013;DHT22;52783;50.502;8.190;2023-05-02T08:55:02;15.80;99.90
66013;DHT22;52783;50.502;8.190;2023-05-02T08:57:28;15.70;99.90
66013;DHT22;52783;50.502;8.190;2023-05-02T08:59:55;15.70;99.90
66013;DHT22;52783;50.502;8.190;2023-05-02T09:04:50;15.50;99.90
66013;DHT22;52783;50.502;8.190;2023-05-02T09:07:18;15.20;99.90
66013;DHT22;52783;50.502;8.190;2023-05-02T09:09:43;15.20;99.90
66013;DHT22;52783;50.502;8.190;2023-05-02T09:12:09;14.80;99.90
66013;DHT22;52783;50.502;8.190;2023-05-02T09:14:35;14.60;99.90
66013;DHT22;52783;50.502;8.190;2023-05-02T09:17:01;15.30;99.90
66013;DHT22;52783;50.502;8.190;2023-05-02T09:19:26;16.20;99.90
66013;DHT22;52783;50.502;8.190;2023-05-02T09:21:58;17.00;99.90
66013;DHT22;52783;50.502;8.190;2023-05-02T09:24:25;17.90;99.90
66013;DHT22;52783;50.502;8.190;2023-05-02T09:27:02;16.50;99.90
66013;DHT22;52783;50.502;8.190;2023-05-02T09:29:30;16.10;99.90
66013;DHT22;52783;50.502;8.190;2023-05-02T09:32:00;16.00;99.90
66013;DHT22;52783;50.502;8.190;2023-05-02T09:34:26;16.00;99.90
66013;DHT22;52783;50.502;8.190;2023-05-02T09:36:52;15.80;99.90
66013;DHT22;52783;50.502;8.190;2023-05-02T09:39:26;16.50;99.90
66013;DHT22;52783;50.502;8.190;2023-05-02T09:41:56;16.60;99.90
66013;DHT22;52783;50.502;8.190;2023-05-02T09:44:24;17.00;99.90
66013;DHT22;52783;50.502;8.190;2023-05-02T09:46:51;17.30;99.90
66013;DHT22;52783;50.502;8.190;2023-05-02T09:49:18;18.10;99.90
66013;DHT22;52783;50.502;8.190;2023-05-02T09:51:45;18.90;99.90
66013;DHT22;52783;50.502;8.190;2023-05-02T09:57:10;19.50;99.90
66013;DHT22;52783;50.502;8.190;2023-05-02T09:59:37;20.10;99.90
66013;DHT22;52783;50.502;8.190;2023-05-02T10:02:04;19.60;99.90
66013;DHT22;52783;50.502;8.190;2023-05-02T10:04:32;20.00;99.90
66013;DHT22;52783;50.502;8.190;2023-05-02T10:06:59;18.70;99.90
66013;DHT22;52783;50.502;8.190;2023-05-02T10:09:26;18.30;99.90
66013;DHT22;52783;50.502;8.190;2023-05-02T10:11:55;17.90;99.90
66013;DHT22;52783;50.502;8.190;2023-05-02T10:14:22;17.50;99.90
66013;DHT22;52783;50.502;8.190;2023-05-02T10:19:30;17.90;99.90
66013;DHT22;52783;50.502;8.190;2023-05-02T10:21:58;17.70;99.90
66013;DHT22;52783;50.502;8.190;2023-05-02T10:24:25;17.50;99.90
66013;DHT22;52783;50.502;8.190;2023-05-02T10:26:51;17.20;99.90
66013;DHT22;52783;50.502;8.190;2023-05-02T10:29:17;16.80;99.90
66013;DHT22;52783;50.502;8.190;2023-05-02T10:31:44;16.30;99.90
66013;DHT22;52783;50.502;8.190;2023-05-02T10:34:10;16.60;99.90
66013;DHT22;52783;50.502;8.190;2023-05-02T10:36:36;16.80;99.90
66013;DHT22;52783;50.502;8.190;2023-05-02T10:39:02;17.00;99.90
66013;DHT22;52783;50.502;8.190;2023-05-02T10:41:30;17.20;99.90
66013;DHT22;52783;50.502;8.190;2023-05-02T10:43:57;17.00;99.90
66013;DHT22;52783;50.502;8.190;2023-05-02T10:46:36;17.40;99.90
66013;DHT22;52783;50.502;8.190;2023-05-02T10:49:03;17.40;99.90
66013;DHT22;52783;50.502;8.190;2023-05-02T10:51:29;16.60;99.90
66013;DHT22;52783;50.502;8.190;2023-05-02T10:57:11;15.70;99.90
66013;DHT22;52783;50.502;8.190;2023-05-02T10:59:38;15.40;99.90
66013;DHT22;52783;50.502;8.190;2023-05-02T11:04:59;15.40;99.90
66013;DHT22;52783;50.502;8.190;2023-05-02T11:07:25;15.70;99.90
66013;DHT22;52783;50.502;8.190;2023-05-02T11:09:51;15.20;99.90
66013;DHT22;52783;50.502;8.190;2023-05-02T11:12:43;15.20;99.90
66013;DHT22;52783;50.502;8.190;2023-05-02T11:15:12;15.20;99.90
66013;DHT22;52783;50.502;8.190;2023-05-02T11:17:57;15.40;99.90
66013;DHT22;52783;50.502;8.190;2023-05-02T11:20:23;15.40;99.90
66013;DHT22;52783;50.502;8.190;2023-05-02T11:22:49;15.50;99.90
66013;DHT22;52783;50.502;8.190;2023-05-02T11:25:29;15.80;99.90
66013;DHT22;52783;50.502;8.190;2023-05-02T11:27:55;16.10;99.90
66013;DHT22;52783;50.502;8.190;2023-05-02T11:30:42;16.20;99.90
66013;DHT22;52783;50.502;8.190;2023-05-02T11:35:34;16.60;99.90
66013;DHT22;52783;50.502;8.190;2023-05-02T11:38:01;17.00;99.90
66013;DHT22;52783;50.502;8.190;2023-05-02T11:40:31;16.70;99.90
66013;DHT22;52783;50.502;8.190;2023-05-02T11:42:58;16.60;99.90
66013;DHT22;52783;50.502;8.190;2023-05-02T11:45:36;16.30;99.90
66013;DHT22;52783;50.502;8.190;2023-05-02T11:48:05;16.30;99.90
66013;DHT22;52783;50.502;8.190;2023-05-02T11:50:33;16.20;99.90
66013;DHT22;52783;50.502;8.190;2023-05-02T11:52:59;15.70;99.90
66013;DHT22;52783;50.502;8.190;2023-05-02T11:55:25;16.00;99.90
66013;DHT22;52783;50.502;8.190;2023-05-02T11:57:51;15.60;99.90
66013;DHT22;52783;50.502;8.190;2023-05-02T12:00:17;15.70;99.90
66013;DHT22;52783;50.502;8.190;2023-05-02T12:02:44;15.80;99.90
66013;DHT22;52783;50.502;8.190;2023-05-02T12:05:11;15.30;99.90
66013;DHT22;52783;50.502;8.190;2023-05-02T12:07:41;15.50;99.90
66013;DHT22;52783;50.502;8.190;2023-05-02T12:10:07;15.60;99.90
66013;DHT22;52783;50.502;8.190;2023-05-02T12:12:34;15.30;99.90
66013;DHT22;52783;50.502;8.190;2023-05-02T12:15:07;15.30;99.90
66013;DHT22;52783;50.502;8.190;2023-05-02T12:17:36;14.80;99.90
66013;DHT22;52783;50.502;8.190;2023-05-02T12:20:04;14.70;99.90
66013;DHT22;52783;50.502;8.190;2023-05-02T12:22:30;14.80;99.90
66013;DHT22;52783;50.502;8.190;2023-05-02T12:24:56;14.90;99.90
66013;DHT22;52783;50.502;8.190;2023-05-02T12:27:22;15.50;99.90
66013;DHT22;52783;50.502;8.190;2023-05-02T12:29:48;15.90;99.90
66013;DHT22;52783;50.502;8.190;2023-05-02T12:32:14;16.10;99.90
66013;DHT22;52783;50.502;8.190;2023-05-02T12:34:44;15.80;99.90
66013;DHT22;52783;50.502;8.190;2023-05-02T12:37:10;15.30;99.90
66013;DHT22;52783;50.502;8.190;2023-05-02T12:39:41;15.00;99.90
66013;DHT22;52783;50.502;8.190;2023-05-02T12:42:11;15.30;99.90
66013;DHT22;52783;50.502;8.190;2023-05-02T12:44:47;15.20;99.90
66013;DHT22;52783;50.502;8.190;2023-05-02T12:47:17;15.50;99.90
66013;DHT22;52783;50.502;8.190;2023-05-02T12:49:55;15.50;99.90
66013;DHT22;52783;50.502;8.190;2023-05-02T12:55:37;15.30;99.90
66013;DHT22;52783;50.502;8.190;2023-05-02T12:58:05;15.30;99.90
66013;DHT22;52783;50.502;8.190;2023-05-02T13:00:32;15.10;99.90
66013;DHT22;52783;50.502;8.190;2023-05-02T13:02:59;15.10;99.90
66013;DHT22;52783;50.502;8.190;2023-05-02T13:05:24;15.30;99.90
66013;DHT22;52783;50.502;8.190;2023-05-02T13:07:50;15.20;99.90
66013;DHT22;52783;50.502;8.190;2023-05-02T13:10:17;15.10;99.90
66013;DHT22;52783;50.502;8.190;2023-05-02T13:12:44;14.90;99.90
66013;DHT22;52783;50.502;8.190;2023-05-02T13:15:11;14.70;99.90
66013;DHT22;52783;50.502;8.190;2023-05-02T13:17:36;14.80;99.90
66013;DHT22;52783;50.502;8.190;2023-05-02T13:20:02;14.90;99.90
66013;DHT22;52783;50.502;8.190;2023-05-02T13:22:28;14.90;99.90
66013;DHT22;52783;50.502;8.190;2023-05-02T13:24:54;14.60;99.90
66013;DHT22;52783;50.502;8.190;2023-05-02T13:27:23;14.30;99.90
66013;DHT22;52783;50.502;8.190;2023-05-02T13:29:49;14.30;99.90
66013;DHT22;52783;50.502;8.190;2023-05-02T13:32:15;14.10;99.90
66013;DHT22;52783;50.502;8.190;2023-05-02T13:34:41;14.30;99.90
66013;DHT22;52783;50.502;8.190;2023-05-02T13:37:07;14.80;99.90
66013;DHT22;52783;50.502;8.190;2023-05-02T13:39:33;14.70;99.90
66013;DHT22;52783;50.502;8.190;2023-05-02T13:41:58;14.30;99.90
66013;DHT22;52783;50.502;8.190;2023-05-02T13:44:24;14.40;99.90
66013;DHT22;52783;50.502;8.190;2023-05-02T13:46:49;14.50;99.90
66013;DHT22;52783;50.502;8.190;2023-05-02T13:49:15;14.70;99.90
66013;DHT22;52783;50.502;8.190;2023-05-02T13:51:40;14.90;99.90
66013;DHT22;52783;50.502;8.190;2023-05-02T13:54:06;14.90;99.90
66013;DHT22;52783;50.502;8.190;2023-05-02T13:56:32;14.80;99.90
66013;DHT22;52783;50.502;8.190;2023-05-02T13:58:57;15.10;99.90
66013;DHT22;52783;50.502;8.190;2023-05-02T14:01:23;15.30;99.90
66013;DHT22;52783;50.502;8.190;2023-05-02T14:03:51;15.20;99.90
66013;DHT22;52783;50.502;8.190;2023-05-02T14:06:16;15.20;99.90
66013;DHT22;52783;50.502;8.190;2023-05-02T14:08:42;15.20;99.90
66013;DHT22;52783;50.502;8.190;2023-05-02T14:11:08;15.30;99.90
66013;DHT22;52783;50.502;8.190;2023-05-02T14:13:33;15.30;99.90
66013;DHT22;52783;50.502;8.190;2023-05-02T14:15:59;15.30;99.90
66013;DHT22;52783;50.502;8.190;2023-05-02T14:18:25;15.30;99.90
66013;DHT22;52783;50.502;8.190;2023-05-02T14:20:50;14.80;99.90
66013;DHT22;52783;50.502;8.190;2023-05-02T14:23:16;14.70;99.90
66013;DHT22;52783;50.502;8.190;2023-05-02T14:25:42;14.40;99.90
66013;DHT22;52783;50.502;8.190;2023-05-02T14:28:07;14.30;99.90
66013;DHT22;52783;50.502;8.190;2023-05-02T14:30:33;14.20;99.90
66013;DHT22;52783;50.502;8.190;2023-05-02T14:32:59;14.40;99.90
66013;DHT22;52783;50.502;8.190;2023-05-02T14:35:24;14.50;99.90
66013;DHT22;52783;50.502;8.190;2023-05-02T14:37:50;14.30;99.90
66013;DHT22;52783;50.502;8.190;2023-05-02T14:40:15;14.10;99.90
66013;DHT22;52783;50.502;8.190;2023-05-02T14:42:41;14.00;99.90
66013;DHT22;52783;50.502;8.190;2023-05-02T14:45:08;14.10;99.90
66013;DHT22;52783;50.502;8.190;2023-05-02T14:47:34;13.90;99.90
66013;DHT22;52783;50.502;8.190;2023-05-02T14:50:02;13.90;99.90
66013;DHT22;52783;50.502;8.190;2023-05-02T14:52:28;14.30;99.90
66013;DHT22;52783;50.502;8.190;2023-05-02T14:54:54;14.20;99.90
66013;DHT22;52783;50.502;8.190;2023-05-02T14:57:20;14.00;99.90
66013;DHT22;52783;50.502;8.190;2023-05-02T14:59:46;14.40;99.90
66013;DHT22;52783;50.502;8.190;2023-05-02T15:02:11;14.10;99.90
66013;DHT22;52783;50.502;8.190;2023-05-02T15:04:37;14.70;99.90
66013;DHT22;52783;50.502;8.190;2023-05-02T15:07:03;14.60;99.90
66013;DHT22;52783;50.502;8.190;2023-05-02T15:09:29;14.30;99.90
66013;DHT22;52783;50.502;8.190;2023-05-02T15:11:55;14.10;99.90
66013;DHT22;52783;50.502;8.190;2023-05-02T15:14:21;14.20;99.90
66013;DHT22;52783;50.502;8.190;2023-05-02T15:16:46;14.00;99.90
66013;DHT22;52783;50.502;8.190;2023-05-02T15:19:12;14.10;99.90
66013;DHT22;52783;50.502;8.190;2023-05-02T15:21:38;14.50;99.90
66013;DHT22;52783;50.502;8.190;2023-05-02T15:24:04;14.20;99.90
66013;DHT22;52783;50.502;8.190;2023-05-02T15:26:30;14.00;99.90
66013;DHT22;52783;50.502;8.190;2023-05-02T15:28:56;14.10;99.90
66013;DHT22;52783;50.502;8.190;2023-05-02T15:31:21;13.90;99.90
66013;DHT22;52783;50.502;8.190;2023-05-02T15:33:47;13.90;99.90
66013;DHT22;52783;50.502;8.190;2023-05-02T15:36:13;13.80;99.90
66013;DHT22;52783;50.502;8.190;2023-05-02T15:38:39;13.60;99.90
66013;DHT22;52783;50.502;8.190;2023-05-02T15:41:08;13.80;99.90
66013;DHT22;52783;50.502;8.190;2023-05-02T15:43:34;14.00;99.90
66013;DHT22;52783;50.502;8.190;2023-05-02T15:46:00;14.00;99.90
66013;DHT22;52783;50.502;8.190;2023-05-02T15:48:27;13.70;99.90
66013;DHT22;52783;50.502;8.190;2023-05-02T15:50:53;13.90;99.90
66013;DHT22;52783;50.502;8.190;2023-05-02T15:53:19;14.00;99.90
66013;DHT22;52783;50.502;8.190;2023-05-02T15:55:48;13.80;99.90
66013;DHT22;52783;50.502;8.190;2023-05-02T15:58:15;13.70;99.90
66013;DHT22;52783;50.502;8.190;2023-05-02T16:00:42;13.80;99.90
66013;DHT22;52783;50.502;8.190;2023-05-02T16:03:07;13.90;99.90
66013;DHT22;52783;50.502;8.190;2023-05-02T16:05:34;13.70;99.90
66013;DHT22;52783;50.502;8.190;2023-05-02T16:08:00;13.30;99.90
66013;DHT22;52783;50.502;8.190;2023-05-02T16:10:26;13.30;99.90
66013;DHT22;52783;50.502;8.190;2023-05-02T16:12:52;13.10;99.90